Time,TemperatureF,DewpointF,PressureIn,WindDirection,WindDirectionDegrees,WindSpeedMPH,WindSpeedGustMPH,Humidity,HourlyPrecipIn,Conditions,Clouds,dailyrainin,SolarRadiationWatts/m^2,SoftwareType,DateUTC
2013-01-17 00:02:00,70.9,64.4,29.78,SE,131,15.0,15.0,80,0.00,,,0.00,0.0,meteohub,2013-01-16 22:02:00,
2013-01-17 00:07:00,70.5,64.4,29.75,ESE,121,8.0,15.0,81,0.00,,,0.00,0.0,meteohub,2013-01-16 22:07:00,
2013-01-17 00:12:00,70.3,64.6,29.73,ESE,121,7.0,15.0,82,0.00,,,0.00,0.0,meteohub,2013-01-16 22:12:00,
2013-01-17 00:17:00,70.2,64.4,29.74,East,98,6.0,17.0,82,0.00,,,0.00,0.0,meteohub,2013-01-16 22:17:00,
2013-01-17 00:22:00,71.1,64.6,29.75,East,93,3.0,17.0,80,0.00,,,0.00,0.0,meteohub,2013-01-16 22:22:00,
2013-01-17 00:27:00,71.4,64.2,29.78,East,93,1.0,17.0,78,0.00,,,0.00,0.0,meteohub,2013-01-16 22:27:00,
2013-01-17 00:32:00,71.8,64.6,29.78,ESE,122,7.0,10.0,78,0.00,,,0.00,0.0,meteohub,2013-01-16 22:32:00,
2013-01-17 00:37:00,71.2,64.0,29.77,SE,137,8.0,14.0,78,0.00,,,0.00,0.0,meteohub,2013-01-16 22:37:00,
2013-01-17 00:47:00,69.6,64.2,29.77,SE,135,7.0,16.0,83,0.00,,,0.00,0.0,meteohub,2013-01-16 22:47:00,
2013-01-17 00:52:00,69.3,64.6,29.77,SE,125,1.0,15.0,85,0.00,,,0.00,0.0,meteohub,2013-01-16 22:52:00,
2013-01-17 00:57:00,68.7,64.4,29.73,SE,135,7.0,15.0,86,0.00,,,0.00,0.0,meteohub,2013-01-16 22:57:00,
2013-01-17 01:02:00,68.7,64.0,29.72,East,81,6.0,15.0,85,0.00,,,0.00,0.0,meteohub,2013-01-16 23:02:00,
2013-01-17 01:07:00,69.4,64.4,29.73,SSE,151,15.0,15.0,84,0.00,,,0.00,0.0,meteohub,2013-01-16 23:07:00,
2013-01-17 01:12:00,69.3,63.9,29.72,ESE,122,15.0,20.0,83,0.00,,,0.00,0.0,meteohub,2013-01-16 23:12:00,
2013-01-17 01:22:00,68.4,63.7,29.75,SE,139,7.0,25.0,85,0.01,,,0.01,0.0,meteohub,2013-01-16 23:22:00,
2013-01-17 01:27:00,68.2,63.9,29.77,ESE,104,8.0,25.0,86,0.01,,,0.01,0.0,meteohub,2013-01-16 23:27:00,
2013-01-17 01:32:00,68.4,63.7,29.78,East,93,16.0,21.0,85,0.01,,,0.01,0.0,meteohub,2013-01-16 23:32:00,
2013-01-17 01:37:00,68.7,64.0,29.77,ESE,108,20.0,22.0,85,0.01,,,0.01,0.0,meteohub,2013-01-16 23:37:00,
2013-01-17 01:42:00,68.7,63.7,29.78,ESE,117,13.0,24.0,84,0.01,,,0.01,0.0,meteohub,2013-01-16 23:42:00,
2013-01-17 01:47:00,68.5,63.9,29.77,ESE,109,12.0,24.0,85,0.01,,,0.01,0.0,meteohub,2013-01-16 23:47:00,
2013-01-17 01:52:00,68.5,63.9,29.77,ESE,107,15.0,24.0,85,0.01,,,0.01,0.0,meteohub,2013-01-16 23:52:00,
2013-01-17 01:57:00,68.5,63.9,29.78,ESE,111,10.0,24.0,85,0.01,,,0.01,0.0,meteohub,2013-01-16 23:57:00,
2013-01-17 02:02:00,68.7,64.0,29.78,ESE,105,12.0,24.0,85,0.01,,,0.01,0.0,meteohub,2013-01-17 00:02:00,
2013-01-17 02:07:00,69.1,64.0,29.78,ESE,108,14.0,21.0,84,0.01,,,0.01,0.0,meteohub,2013-01-17 00:07:00,
2013-01-17 02:12:00,69.3,64.6,29.79,ESE,116,9.0,19.0,85,0.01,,,0.01,0.0,meteohub,2013-01-17 00:12:00,
2013-01-17 02:17:00,69.3,64.6,29.80,ESE,110,4.0,19.0,85,0.00,,,0.01,0.0,meteohub,2013-01-17 00:17:00,
2013-01-17 02:22:00,69.1,64.4,29.80,ESE,110,1.0,15.0,85,0.00,,,0.01,0.0,meteohub,2013-01-17 00:22:00,
2013-01-17 02:27:00,69.1,64.4,29.79,ESE,115,5.0,12.0,85,0.00,,,0.01,0.0,meteohub,2013-01-17 00:27:00,
2013-01-17 02:32:00,69.1,64.4,29.79,ESE,115,6.0,9.0,85,0.00,,,0.01,0.0,meteohub,2013-01-17 00:32:00,
2013-01-17 02:37:00,69.1,64.4,29.79,ESE,116,6.0,9.0,85,0.00,,,0.01,0.0,meteohub,2013-01-17 00:37:00,
2013-01-17 02:42:00,69.1,64.4,29.80,ESE,117,5.0,10.0,85,0.00,,,0.01,0.0,meteohub,2013-01-17 00:42:00,
2013-01-17 02:47:00,69.1,64.4,29.79,ESE,117,5.0,10.0,85,0.00,,,0.01,0.0,meteohub,2013-01-17 00:47:00,
2013-01-17 02:52:00,69.1,64.4,29.79,ESE,117,0.0,9.0,85,0.00,,,0.01,0.0,meteohub,2013-01-17 00:52:00,
2013-01-17 02:57:00,69.1,64.4,29.78,ESE,117,0.0,7.0,85,0.00,,,0.01,0.0,meteohub,2013-01-17 00:57:00,
2013-01-17 03:02:00,68.5,64.2,29.78,ESE,117,1.0,6.0,86,0.00,,,0.01,0.0,meteohub,2013-01-17 01:02:00,
2013-01-17 03:07:00,68.4,64.0,29.78,ESE,117,0.0,5.0,86,0.00,,,0.01,0.0,meteohub,2013-01-17 01:07:00,
2013-01-17 03:12:00,68.0,64.0,29.78,ESE,117,0.0,5.0,87,0.00,,,0.01,0.0,meteohub,2013-01-17 01:12:00,
2013-01-17 03:17:00,67.6,63.7,29.78,ESE,117,2.0,2.0,87,0.00,,,0.01,0.0,meteohub,2013-01-17 01:17:00,
2013-01-17 03:22:00,66.9,62.6,29.78,ESE,117,1.0,3.0,86,0.00,,,0.01,0.0,meteohub,2013-01-17 01:22:00,
2013-01-17 03:27:00,66.6,61.9,29.78,ESE,117,0.0,4.0,85,0.00,,,0.01,0.0,meteohub,2013-01-17 01:27:00,
2013-01-17 03:32:00,66.0,61.3,29.79,ESE,117,0.0,5.0,85,0.00,,,0.01,0.0,meteohub,2013-01-17 01:32:00,
2013-01-17 03:37:00,66.0,61.3,29.79,ESE,117,0.0,5.0,85,0.00,,,0.01,0.0,meteohub,2013-01-17 01:37:00,
2013-01-17 03:42:00,65.8,61.2,29.78,ESE,117,2.0,5.0,85,0.00,,,0.01,0.0,meteohub,2013-01-17 01:42:00,
2013-01-17 03:47:00,65.8,61.2,29.78,ESE,117,1.0,4.0,85,0.00,,,0.01,0.0,meteohub,2013-01-17 01:47:00,
2013-01-17 03:52:00,65.8,61.2,29.78,ESE,117,0.0,3.0,85,0.00,,,0.01,0.0,meteohub,2013-01-17 01:52:00,
2013-01-17 03:57:00,65.8,61.2,29.78,ESE,117,0.0,3.0,85,0.00,,,0.01,0.0,meteohub,2013-01-17 01:57:00,
2013-01-17 04:02:00,65.8,61.2,29.78,ESE,117,0.0,3.0,85,0.00,,,0.01,0.0,meteohub,2013-01-17 02:02:00,
2013-01-17 04:07:00,65.7,61.0,29.78,ESE,117,1.0,2.0,85,0.00,,,0.01,0.0,meteohub,2013-01-17 02:07:00,
2013-01-17 04:12:00,65.5,60.8,29.79,ESE,117,4.0,4.0,85,0.00,,,0.01,0.0,meteohub,2013-01-17 02:12:00,
2013-01-17 04:17:00,65.5,61.2,29.79,ESE,117,0.0,4.0,86,0.00,,,0.01,0.0,meteohub,2013-01-17 02:17:00,
2013-01-17 04:22:00,65.5,61.2,29.79,ESE,117,2.0,4.0,86,0.00,,,0.01,0.0,meteohub,2013-01-17 02:22:00,
2013-01-17 04:27:00,65.7,61.7,29.79,ESE,117,0.0,5.0,87,0.00,,,0.01,0.0,meteohub,2013-01-17 02:27:00,
2013-01-17 04:32:00,65.8,61.9,29.80,ESE,117,5.0,5.0,87,0.00,,,0.01,0.0,meteohub,2013-01-17 02:32:00,
2013-01-17 04:37:00,66.4,62.8,29.79,ESE,117,0.0,7.0,88,0.00,,,0.01,0.0,meteohub,2013-01-17 02:37:00,
2013-01-17 04:42:00,66.7,63.1,29.79,ESE,117,5.0,7.0,88,0.00,,,0.01,0.0,meteohub,2013-01-17 02:42:00,
2013-01-17 04:52:00,67.1,63.5,29.80,ESE,117,4.0,8.0,88,0.00,,,0.01,0.0,meteohub,2013-01-17 02:52:00,
2013-01-17 04:57:00,67.1,63.5,29.80,ESE,117,2.0,8.0,88,0.00,,,0.01,0.0,meteohub,2013-01-17 02:57:00,
2013-01-17 05:02:00,67.1,63.7,29.80,ESE,117,6.0,8.0,89,0.00,,,0.01,0.0,meteohub,2013-01-17 03:02:00,
2013-01-17 05:07:00,67.3,63.9,29.80,ESE,117,2.0,10.0,89,0.00,,,0.01,0.0,meteohub,2013-01-17 03:07:00,
2013-01-17 05:12:00,67.3,63.9,29.81,ESE,117,0.0,10.0,89,0.00,,,0.01,0.0,meteohub,2013-01-17 03:12:00,
2013-01-17 05:17:00,67.1,63.7,29.81,ESE,117,0.0,10.0,89,0.00,,,0.01,0.0,meteohub,2013-01-17 03:17:00,
2013-01-17 05:22:00,67.3,64.2,29.81,ESE,104,14.0,14.0,90,0.00,,,0.01,0.0,meteohub,2013-01-17 03:22:00,
2013-01-17 05:27:00,67.5,64.4,29.81,ESE,108,11.0,15.0,90,0.00,,,0.01,0.0,meteohub,2013-01-17 03:27:00,
2013-01-17 05:32:00,67.5,64.4,29.81,ESE,106,11.0,15.0,90,0.00,,,0.01,0.0,meteohub,2013-01-17 03:32:00,
2013-01-17 05:37:00,67.5,64.4,29.81,ESE,114,5.0,15.0,90,0.00,,,0.01,0.0,meteohub,2013-01-17 03:37:00,
2013-01-17 05:42:00,67.5,64.4,29.81,ESE,110,8.0,15.0,90,0.00,,,0.01,0.0,meteohub,2013-01-17 03:42:00,
2013-01-17 05:47:00,67.6,64.6,29.81,ESE,116,10.0,15.0,90,0.00,,,0.01,0.0,meteohub,2013-01-17 03:47:00,
2013-01-17 05:52:00,67.5,64.4,29.81,ESE,118,4.0,15.0,90,0.00,,,0.01,0.0,meteohub,2013-01-17 03:52:00,
2013-01-17 05:57:00,67.5,64.4,29.81,ESE,122,2.0,15.0,90,0.00,,,0.01,5.0,meteohub,2013-01-17 03:57:00,
2013-01-17 06:02:00,67.3,64.2,29.81,SE,124,5.0,15.0,90,0.00,,,0.01,9.0,meteohub,2013-01-17 04:02:00,
2013-01-17 06:12:00,67.1,64.4,29.82,ESE,117,6.0,11.0,91,0.00,,,0.01,14.0,meteohub,2013-01-17 04:12:00,
2013-01-17 06:17:00,67.1,64.4,29.82,ESE,116,10.0,18.0,91,0.00,,,0.01,19.0,meteohub,2013-01-17 04:17:00,
2013-01-17 06:22:00,67.1,64.4,29.83,East,100,15.0,18.0,91,0.00,,,0.01,21.0,meteohub,2013-01-17 04:22:00,
2013-01-17 06:27:00,66.9,64.6,29.83,ESE,118,4.0,20.0,92,0.00,,,0.01,26.0,meteohub,2013-01-17 04:27:00,
2013-01-17 06:32:00,67.1,64.8,29.83,ESE,113,10.0,20.0,92,0.00,,,0.01,25.0,meteohub,2013-01-17 04:32:00,
2013-01-17 06:37:00,66.9,64.6,29.83,East,98,10.0,20.0,92,0.00,,,0.01,32.0,meteohub,2013-01-17 04:37:00,
2013-01-17 06:42:00,66.9,64.6,29.83,ESE,104,13.0,20.0,92,0.00,,,0.01,33.0,meteohub,2013-01-17 04:42:00,
2013-01-17 06:47:00,66.9,64.8,29.83,ESE,113,11.0,20.0,93,0.00,,,0.01,35.0,meteohub,2013-01-17 04:47:00,
2013-01-17 06:57:00,66.9,64.8,29.84,ESE,111,8.0,19.0,93,0.00,,,0.01,47.0,meteohub,2013-01-17 04:57:00,
2013-01-17 07:02:00,66.9,64.8,29.84,ESE,118,5.0,17.0,93,0.00,,,0.01,54.0,meteohub,2013-01-17 05:02:00,
2013-01-17 07:12:00,67.1,64.9,29.84,ESE,122,8.0,17.0,93,0.00,,,0.01,107.0,meteohub,2013-01-17 05:12:00,
2013-01-17 07:17:00,67.3,65.1,29.84,ESE,107,7.0,17.0,93,0.00,,,0.01,211.0,meteohub,2013-01-17 05:17:00,
2013-01-17 07:22:00,67.5,65.3,29.84,ESE,116,9.0,17.0,93,0.00,,,0.01,113.0,meteohub,2013-01-17 05:22:00,
2013-01-17 07:27:00,67.5,65.3,29.84,ESE,114,7.0,17.0,93,0.00,,,0.01,156.0,meteohub,2013-01-17 05:27:00,
2013-01-17 07:32:00,67.5,65.3,29.84,ESE,122,9.0,17.0,93,0.00,,,0.01,264.0,meteohub,2013-01-17 05:32:00,
2013-01-17 07:37:00,67.5,65.3,29.84,ESE,123,14.0,18.0,93,0.00,,,0.01,274.0,meteohub,2013-01-17 05:37:00,
2013-01-17 07:42:00,67.6,65.5,29.85,ESE,104,11.0,20.0,93,0.00,,,0.01,316.0,meteohub,2013-01-17 05:42:00,
2013-01-17 07:47:00,67.6,65.5,29.85,ESE,108,11.0,20.0,93,0.00,,,0.01,301.0,meteohub,2013-01-17 05:47:00,
2013-01-17 07:52:00,67.8,65.7,29.85,ESE,106,8.0,17.0,93,0.00,,,0.01,327.0,meteohub,2013-01-17 05:52:00,
2013-01-17 07:57:00,68.0,65.8,29.84,ESE,110,11.0,17.0,93,0.00,,,0.01,183.0,meteohub,2013-01-17 05:57:00,
2013-01-17 08:02:00,68.0,65.8,29.84,East,98,10.0,19.0,93,0.00,,,0.01,387.0,meteohub,2013-01-17 06:02:00,
2013-01-17 08:07:00,68.2,66.0,29.84,East,92,9.0,19.0,93,0.00,,,0.01,195.0,meteohub,2013-01-17 06:07:00,
2013-01-17 08:12:00,68.4,66.0,29.85,ESE,106,11.0,19.0,92,0.00,,,0.01,418.0,meteohub,2013-01-17 06:12:00,
2013-01-17 08:17:00,68.5,66.4,29.84,ESE,118,10.0,19.0,93,0.00,,,0.01,438.0,meteohub,2013-01-17 06:17:00,
2013-01-17 08:22:00,69.1,66.7,29.85,ESE,109,5.0,20.0,92,0.00,,,0.01,464.0,meteohub,2013-01-17 06:22:00,
2013-01-17 08:27:00,69.4,67.1,29.85,ESE,116,12.0,20.0,92,0.00,,,0.01,512.0,meteohub,2013-01-17 06:27:00,
2013-01-17 08:32:00,69.6,66.9,29.86,East,95,16.0,20.0,91,0.00,,,0.01,480.0,meteohub,2013-01-17 06:32:00,
2013-01-17 08:37:00,69.6,66.9,29.86,East,95,15.0,19.0,91,0.00,,,0.01,285.0,meteohub,2013-01-17 06:37:00,
2013-01-17 08:42:00,69.6,66.9,29.86,ESE,109,11.0,19.0,91,0.00,,,0.01,526.0,meteohub,2013-01-17 06:42:00,
2013-01-17 08:47:00,69.8,66.7,29.86,East,101,13.0,19.0,90,0.00,,,0.01,278.0,meteohub,2013-01-17 06:47:00,
2013-01-17 08:52:00,70.0,67.3,29.87,ESE,106,10.0,19.0,91,0.00,,,0.01,508.0,meteohub,2013-01-17 06:52:00,
2013-01-17 08:57:00,70.3,67.3,29.87,ESE,117,9.0,19.0,90,0.00,,,0.01,499.0,meteohub,2013-01-17 06:57:00,
2013-01-17 09:02:00,70.7,67.6,29.87,ESE,120,14.0,19.0,90,0.00,,,0.01,696.0,meteohub,2013-01-17 07:02:00,
2013-01-17 09:07:00,71.2,67.8,29.87,ESE,107,13.0,18.0,89,0.00,,,0.01,394.0,meteohub,2013-01-17 07:07:00,
2013-01-17 09:12:00,72.0,68.2,29.87,ESE,112,13.0,19.0,88,0.00,,,0.01,643.0,meteohub,2013-01-17 07:12:00,
2013-01-17 09:17:00,72.7,68.5,29.87,ESE,112,8.0,19.0,87,0.00,,,0.01,670.0,meteohub,2013-01-17 07:17:00,
2013-01-17 09:22:00,73.0,68.2,29.87,ESE,118,13.0,21.0,85,0.00,,,0.01,682.0,meteohub,2013-01-17 07:22:00,
2013-01-17 09:27:00,73.6,68.4,29.88,ESE,113,15.0,21.0,84,0.00,,,0.01,684.0,meteohub,2013-01-17 07:27:00,
2013-01-17 09:32:00,73.9,68.7,29.88,ESE,118,10.0,24.0,84,0.00,,,0.01,717.0,meteohub,2013-01-17 07:32:00,
2013-01-17 09:37:00,74.5,68.9,29.88,ESE,104,19.0,24.0,83,0.00,,,0.01,710.0,meteohub,2013-01-17 07:37:00,
2013-01-17 09:42:00,74.7,68.7,29.88,ESE,108,13.0,20.0,82,0.00,,,0.01,229.0,meteohub,2013-01-17 07:42:00,
2013-01-17 09:47:00,74.7,68.4,29.88,ESE,108,14.0,20.0,81,0.00,,,0.01,770.0,meteohub,2013-01-17 07:47:00,
2013-01-17 09:52:00,75.2,68.9,29.88,SE,131,8.0,20.0,81,0.00,,,0.01,765.0,meteohub,2013-01-17 07:52:00,
2013-01-17 09:57:00,75.7,69.1,29.89,ESE,110,8.0,18.0,80,0.00,,,0.01,737.0,meteohub,2013-01-17 07:57:00,
2013-01-17 10:02:00,76.1,69.1,29.89,ESE,118,13.0,17.0,79,0.00,,,0.01,780.0,meteohub,2013-01-17 08:02:00,
2013-01-17 10:07:00,75.9,68.5,29.89,ESE,104,11.0,19.0,78,0.00,,,0.01,800.0,meteohub,2013-01-17 08:07:00,
2013-01-17 10:12:00,75.9,68.5,29.89,East,95,9.0,19.0,78,0.00,,,0.01,789.0,meteohub,2013-01-17 08:12:00,
2013-01-17 10:17:00,75.9,68.5,29.89,ESE,112,8.0,19.0,78,0.00,,,0.01,814.0,meteohub,2013-01-17 08:17:00,
2013-01-17 10:22:00,75.9,68.5,29.89,East,99,8.0,19.0,78,0.00,,,0.01,823.0,meteohub,2013-01-17 08:22:00,
2013-01-17 10:27:00,76.3,68.9,29.89,ESE,118,14.0,20.0,78,0.00,,,0.01,840.0,meteohub,2013-01-17 08:27:00,
2013-01-17 10:32:00,76.5,69.1,29.90,East,101,17.0,20.0,78,0.00,,,0.01,865.0,meteohub,2013-01-17 08:32:00,
2013-01-17 10:37:00,76.6,68.9,29.90,ESE,110,13.0,20.0,77,0.00,,,0.01,856.0,meteohub,2013-01-17 08:37:00,
2013-01-17 10:42:00,76.6,68.9,29.89,East,86,15.0,20.0,77,0.00,,,0.01,875.0,meteohub,2013-01-17 08:42:00,
2013-01-17 10:47:00,76.8,68.7,29.89,ESE,112,12.0,20.0,76,0.00,,,0.01,886.0,meteohub,2013-01-17 08:47:00,
2013-01-17 10:52:00,76.8,68.7,29.89,ESE,122,5.0,20.0,76,0.00,,,0.01,919.0,meteohub,2013-01-17 08:52:00,
2013-01-17 10:57:00,77.2,69.1,29.89,ESE,109,9.0,20.0,76,0.00,,,0.01,970.0,meteohub,2013-01-17 08:57:00,
2013-01-17 11:02:00,77.5,68.9,29.89,ESE,115,11.0,21.0,75,0.00,,,0.01,942.0,meteohub,2013-01-17 09:02:00,
2013-01-17 11:07:00,77.7,69.1,29.90,ESE,116,8.0,21.0,75,0.00,,,0.01,974.0,meteohub,2013-01-17 09:07:00,
2013-01-17 11:12:00,77.5,69.4,29.90,East,89,16.0,21.0,76,0.00,,,0.01,1002.0,meteohub,2013-01-17 09:12:00,
2013-01-17 11:17:00,77.7,69.6,29.90,SE,126,7.0,20.0,76,0.00,,,0.01,1027.0,meteohub,2013-01-17 09:17:00,
2013-01-17 11:22:00,78.1,70.0,29.89,ESE,112,11.0,22.0,76,0.00,,,0.01,1034.0,meteohub,2013-01-17 09:22:00,
2013-01-17 11:27:00,78.3,69.3,29.90,ESE,112,13.0,22.0,74,0.00,,,0.01,1014.0,meteohub,2013-01-17 09:27:00,
2013-01-17 11:32:00,78.4,69.1,29.89,ESE,108,11.0,22.0,73,0.00,,,0.01,1051.0,meteohub,2013-01-17 09:32:00,
2013-01-17 11:37:00,78.4,69.1,29.89,ESE,106,10.0,20.0,73,0.00,,,0.01,990.0,meteohub,2013-01-17 09:37:00,
2013-01-17 11:42:00,78.4,69.1,29.89,ESE,122,10.0,24.0,73,0.00,,,0.01,1009.0,meteohub,2013-01-17 09:42:00,
2013-01-17 11:47:00,78.3,69.3,29.89,SE,129,19.0,24.0,74,0.00,,,0.01,984.0,meteohub,2013-01-17 09:47:00,
2013-01-17 11:52:00,78.1,69.1,29.89,ESE,118,9.0,24.0,74,0.00,,,0.01,983.0,meteohub,2013-01-17 09:52:00,
2013-01-17 11:57:00,78.1,69.1,29.89,ESE,111,11.0,24.0,74,0.00,,,0.01,979.0,meteohub,2013-01-17 09:57:00,
2013-01-17 12:02:00,78.3,68.9,29.89,ESE,118,18.0,22.0,73,0.00,,,0.01,972.0,meteohub,2013-01-17 10:02:00,
2013-01-17 12:07:00,78.4,69.1,29.89,ESE,114,13.0,21.0,73,0.00,,,0.01,983.0,meteohub,2013-01-17 10:07:00,
2013-01-17 12:12:00,79.2,69.3,29.88,SE,129,12.0,24.0,72,0.00,,,0.01,986.0,meteohub,2013-01-17 10:12:00,
2013-01-17 12:17:00,79.3,69.1,29.88,SE,133,16.0,25.0,71,0.00,,,0.01,993.0,meteohub,2013-01-17 10:17:00,
2013-01-17 12:22:00,79.7,69.4,29.88,ESE,115,13.0,25.0,71,0.00,,,0.01,991.0,meteohub,2013-01-17 10:22:00,
2013-01-17 12:27:00,79.9,69.3,29.88,ESE,122,19.0,25.0,70,0.00,,,0.01,1004.0,meteohub,2013-01-17 10:27:00,
2013-01-17 12:32:00,79.9,69.3,29.88,East,100,9.0,24.0,70,0.00,,,0.01,1004.0,meteohub,2013-01-17 10:32:00,
2013-01-17 12:37:00,80.1,69.4,29.87,East,99,11.0,24.0,70,0.00,,,0.01,1007.0,meteohub,2013-01-17 10:37:00,
2013-01-17 12:42:00,80.2,69.1,29.88,ESE,107,18.0,24.0,69,0.00,,,0.01,1004.0,meteohub,2013-01-17 10:42:00,
2013-01-17 12:47:00,80.4,69.3,29.88,ESE,106,16.0,24.0,69,0.00,,,0.01,1007.0,meteohub,2013-01-17 10:47:00,
2013-01-17 12:52:00,80.2,69.6,29.88,ESE,116,9.0,23.0,70,0.00,,,0.01,1004.0,meteohub,2013-01-17 10:52:00,
2013-01-17 12:57:00,80.4,69.8,29.88,SE,124,14.0,23.0,70,0.00,,,0.01,1011.0,meteohub,2013-01-17 10:57:00,
2013-01-17 13:02:00,80.4,69.8,29.87,ESE,115,11.0,22.0,70,0.00,,,0.01,1009.0,meteohub,2013-01-17 11:02:00,
2013-01-17 13:07:00,80.6,69.4,29.87,ESE,112,17.0,24.0,69,0.00,,,0.01,1014.0,meteohub,2013-01-17 11:07:00,
2013-01-17 13:12:00,80.4,69.3,29.87,ESE,123,8.0,25.0,69,0.00,,,0.01,1007.0,meteohub,2013-01-17 11:12:00,
2013-01-17 13:17:00,80.4,68.9,29.87,ESE,117,12.0,25.0,68,0.00,,,0.01,1000.0,meteohub,2013-01-17 11:17:00,
2013-01-17 13:22:00,80.4,69.3,29.87,ESE,116,8.0,25.0,69,0.00,,,0.01,997.0,meteohub,2013-01-17 11:22:00,
2013-01-17 13:27:00,80.4,69.3,29.87,ESE,105,14.0,27.0,69,0.00,,,0.01,1095.0,meteohub,2013-01-17 11:27:00,
2013-01-17 13:32:00,80.8,69.6,29.87,ESE,115,14.0,27.0,69,0.00,,,0.01,998.0,meteohub,2013-01-17 11:32:00,
2013-01-17 13:37:00,80.6,69.4,29.87,SE,133,11.0,29.0,69,0.00,,,0.01,998.0,meteohub,2013-01-17 11:37:00,
2013-01-17 13:42:00,80.8,69.6,29.87,East,91,12.0,29.0,69,0.00,,,0.01,991.0,meteohub,2013-01-17 11:42:00,
2013-01-17 13:47:00,80.4,69.3,29.87,East,101,18.0,29.0,69,0.00,,,0.01,986.0,meteohub,2013-01-17 11:47:00,
2013-01-17 13:52:00,80.2,69.6,29.87,ESE,106,17.0,28.0,70,0.00,,,0.01,986.0,meteohub,2013-01-17 11:52:00,
2013-01-17 13:57:00,80.2,69.6,29.87,ESE,120,12.0,28.0,70,0.00,,,0.01,986.0,meteohub,2013-01-17 11:57:00,
2013-01-17 14:02:00,80.1,69.8,29.87,ESE,120,17.0,27.0,71,0.00,,,0.01,983.0,meteohub,2013-01-17 12:02:00,
2013-01-17 14:07:00,80.1,69.8,29.87,ESE,119,15.0,27.0,71,0.00,,,0.01,967.0,meteohub,2013-01-17 12:07:00,
2013-01-17 14:12:00,80.2,69.6,29.87,ESE,118,16.0,29.0,70,0.00,,,0.01,954.0,meteohub,2013-01-17 12:12:00,
2013-01-17 14:17:00,80.2,69.6,29.87,ESE,108,16.0,29.0,70,0.00,,,0.01,949.0,meteohub,2013-01-17 12:17:00,
2013-01-17 14:22:00,80.4,69.8,29.87,ESE,108,18.0,29.0,70,0.00,,,0.01,944.0,meteohub,2013-01-17 12:22:00,
2013-01-17 14:27:00,80.6,70.0,29.86,ESE,110,19.0,29.0,70,0.00,,,0.01,939.0,meteohub,2013-01-17 12:27:00,
2013-01-17 14:32:00,80.4,69.3,29.86,ESE,118,23.0,28.0,69,0.00,,,0.01,925.0,meteohub,2013-01-17 12:32:00,
2013-01-17 14:37:00,80.2,69.6,29.86,ESE,105,16.0,28.0,70,0.00,,,0.01,918.0,meteohub,2013-01-17 12:37:00,
2013-01-17 14:42:00,80.4,69.8,29.87,ESE,114,19.0,28.0,70,0.00,,,0.01,912.0,meteohub,2013-01-17 12:42:00,
2013-01-17 14:47:00,80.6,69.4,29.86,ESE,102,19.0,28.0,69,0.00,,,0.01,911.0,meteohub,2013-01-17 12:47:00,
2013-01-17 14:52:00,80.8,69.6,29.86,ESE,109,14.0,28.0,69,0.00,,,0.01,911.0,meteohub,2013-01-17 12:52:00,
2013-01-17 14:57:00,81.1,69.6,29.86,ESE,110,18.0,27.0,68,0.00,,,0.01,916.0,meteohub,2013-01-17 12:57:00,
2013-01-17 15:02:00,81.3,69.3,29.86,ESE,117,25.0,27.0,67,0.00,,,0.01,990.0,meteohub,2013-01-17 13:02:00,
2013-01-17 15:07:00,80.6,69.1,29.86,ESE,102,14.0,27.0,68,0.00,,,0.01,262.0,meteohub,2013-01-17 13:07:00,
2013-01-17 15:12:00,79.9,69.3,29.86,ESE,119,17.0,30.0,70,0.00,,,0.01,262.0,meteohub,2013-01-17 13:12:00,
2013-01-17 15:22:00,79.5,68.9,29.86,East,99,16.0,30.0,70,0.00,,,0.01,937.0,meteohub,2013-01-17 13:22:00,
2013-01-17 15:27:00,79.9,69.3,29.86,ESE,122,9.0,29.0,70,0.00,,,0.01,881.0,meteohub,2013-01-17 13:27:00,
2013-01-17 15:32:00,79.9,69.3,29.86,East,99,22.0,29.0,70,0.00,,,0.01,888.0,meteohub,2013-01-17 13:32:00,
2013-01-17 15:37:00,80.1,69.4,29.86,East,101,14.0,29.0,70,0.00,,,0.01,877.0,meteohub,2013-01-17 13:37:00,
2013-01-17 15:42:00,80.4,69.3,29.86,ESE,118,20.0,29.0,69,0.00,,,0.01,715.0,meteohub,2013-01-17 13:42:00,
2013-01-17 15:47:00,80.4,69.3,29.86,ESE,108,23.0,28.0,69,0.00,,,0.01,770.0,meteohub,2013-01-17 13:47:00,
2013-01-17 15:52:00,80.4,69.3,29.86,ESE,120,19.0,28.0,69,0.00,,,0.01,768.0,meteohub,2013-01-17 13:52:00,
2013-01-17 15:57:00,80.4,69.3,29.86,ESE,114,15.0,28.0,69,0.00,,,0.01,759.0,meteohub,2013-01-17 13:57:00,
2013-01-17 16:02:00,80.4,69.3,29.86,SE,131,14.0,28.0,69,0.00,,,0.01,772.0,meteohub,2013-01-17 14:02:00,
2013-01-17 16:07:00,80.4,69.3,29.86,ESE,104,10.0,28.0,69,0.00,,,0.01,707.0,meteohub,2013-01-17 14:07:00,
2013-01-17 16:12:00,80.1,68.9,29.86,East,100,14.0,28.0,69,0.00,,,0.01,754.0,meteohub,2013-01-17 14:12:00,
2013-01-17 16:17:00,79.9,68.7,29.86,East,89,24.0,28.0,69,0.00,,,0.01,610.0,meteohub,2013-01-17 14:17:00,
2013-01-17 16:22:00,79.5,68.9,29.86,East,101,17.0,30.0,70,0.00,,,0.01,729.0,meteohub,2013-01-17 14:22:00,
2013-01-17 16:27:00,79.3,68.7,29.86,ESE,116,17.0,30.0,70,0.00,,,0.01,729.0,meteohub,2013-01-17 14:27:00,
2013-01-17 16:37:00,79.3,69.1,29.86,East,95,12.0,26.0,71,0.00,,,0.01,703.0,meteohub,2013-01-17 14:37:00,
2013-01-17 16:42:00,78.8,68.5,29.86,SE,124,13.0,26.0,71,0.00,,,0.01,640.0,meteohub,2013-01-17 14:42:00,
2013-01-17 16:47:00,78.3,68.5,29.86,ESE,114,14.0,30.0,72,0.00,,,0.01,670.0,meteohub,2013-01-17 14:47:00,
2013-01-17 16:52:00,77.7,68.4,29.85,ESE,122,22.0,30.0,73,0.00,,,0.01,598.0,meteohub,2013-01-17 14:52:00,
2013-01-17 16:57:00,78.1,68.4,29.85,ESE,118,8.0,30.0,72,0.00,,,0.01,585.0,meteohub,2013-01-17 14:57:00,
2013-01-17 17:02:00,78.4,68.2,29.85,ESE,114,16.0,30.0,71,0.00,,,0.01,552.0,meteohub,2013-01-17 15:02:00,
2013-01-17 17:07:00,78.4,67.8,29.85,ESE,106,15.0,30.0,70,0.00,,,0.01,538.0,meteohub,2013-01-17 15:07:00,
2013-01-17 17:12:00,78.4,68.2,29.86,ESE,121,15.0,30.0,71,0.00,,,0.01,554.0,meteohub,2013-01-17 15:12:00,
2013-01-17 17:17:00,77.7,68.0,29.85,ESE,122,13.0,29.0,72,0.00,,,0.01,554.0,meteohub,2013-01-17 15:17:00,
2013-01-17 17:22:00,76.8,67.8,29.85,East,84,22.0,30.0,74,0.00,,,0.01,162.0,meteohub,2013-01-17 15:22:00,
2013-01-17 17:27:00,76.8,68.4,29.85,ESE,102,13.0,30.0,75,0.00,,,0.01,476.0,meteohub,2013-01-17 15:27:00,
2013-01-17 17:32:00,76.8,68.4,29.85,SE,137,13.0,30.0,75,0.00,,,0.01,446.0,meteohub,2013-01-17 15:32:00,
2013-01-17 17:37:00,77.0,68.5,29.85,SE,127,9.0,30.0,75,0.00,,,0.01,432.0,meteohub,2013-01-17 15:37:00,
2013-01-17 17:42:00,76.6,68.2,29.85,SE,124,21.0,28.0,75,0.00,,,0.01,411.0,meteohub,2013-01-17 15:42:00,
2013-01-17 17:47:00,76.5,68.4,29.85,East,100,20.0,28.0,76,0.00,,,0.01,408.0,meteohub,2013-01-17 15:47:00,
2013-01-17 17:52:00,76.1,68.0,29.85,SE,126,13.0,28.0,76,0.00,,,0.01,397.0,meteohub,2013-01-17 15:52:00,
2013-01-17 17:57:00,75.7,67.6,29.85,ESE,110,15.0,28.0,76,0.00,,,0.01,373.0,meteohub,2013-01-17 15:57:00,
2013-01-17 18:02:00,75.6,67.5,29.85,SE,141,10.0,30.0,76,0.00,,,0.01,352.0,meteohub,2013-01-17 16:02:00,
2013-01-17 18:07:00,75.6,67.8,29.85,SE,130,15.0,30.0,77,0.00,,,0.01,323.0,meteohub,2013-01-17 16:07:00,
2013-01-17 18:12:00,75.4,67.6,29.85,East,98,15.0,30.0,77,0.00,,,0.01,295.0,meteohub,2013-01-17 16:12:00,
2013-01-17 18:17:00,75.0,67.3,29.85,SSE,153,16.0,31.0,77,0.00,,,0.01,283.0,meteohub,2013-01-17 16:17:00,
2013-01-17 18:22:00,74.8,67.5,29.85,East,100,10.0,31.0,78,0.00,,,0.01,260.0,meteohub,2013-01-17 16:22:00,
2013-01-17 18:27:00,74.7,67.3,29.86,East,101,13.0,31.0,78,0.00,,,0.01,251.0,meteohub,2013-01-17 16:27:00,
2013-01-17 18:32:00,74.7,67.3,29.85,ESE,120,22.0,30.0,78,0.00,,,0.01,236.0,meteohub,2013-01-17 16:32:00,
2013-01-17 18:37:00,74.5,67.1,29.86,ESE,116,16.0,30.0,78,0.00,,,0.01,223.0,meteohub,2013-01-17 16:37:00,
2013-01-17 18:42:00,74.1,66.7,29.86,East,97,17.0,30.0,78,0.00,,,0.01,204.0,meteohub,2013-01-17 16:42:00,
2013-01-17 18:47:00,73.9,67.1,29.86,ESE,102,20.0,30.0,79,0.00,,,0.01,176.0,meteohub,2013-01-17 16:47:00,
2013-01-17 18:52:00,73.8,67.3,29.86,ESE,107,17.0,29.0,80,0.00,,,0.01,165.0,meteohub,2013-01-17 16:52:00,
2013-01-17 18:57:00,73.6,67.1,29.86,East,95,24.0,29.0,80,0.00,,,0.01,141.0,meteohub,2013-01-17 16:57:00,
2013-01-17 19:02:00,73.2,66.7,29.86,ESE,121,12.0,30.0,80,0.00,,,0.01,121.0,meteohub,2013-01-17 17:02:00,
2013-01-17 19:07:00,73.0,66.6,29.86,ESE,120,15.0,30.0,80,0.00,,,0.01,104.0,meteohub,2013-01-17 17:07:00,
2013-01-17 19:12:00,72.9,66.4,29.86,ESE,104,20.0,29.0,80,0.00,,,0.01,84.0,meteohub,2013-01-17 17:12:00,
2013-01-17 19:17:00,72.5,66.0,29.86,East,91,15.0,30.0,80,0.00,,,0.01,72.0,meteohub,2013-01-17 17:17:00,
2013-01-17 19:22:00,72.1,66.0,29.86,East,99,16.0,30.0,81,0.00,,,0.01,35.0,meteohub,2013-01-17 17:22:00,
2013-01-17 19:27:00,71.6,66.2,29.86,ESE,112,18.0,30.0,83,0.00,,,0.01,32.0,meteohub,2013-01-17 17:27:00,
2013-01-17 19:32:00,71.2,66.2,29.86,ESE,104,9.0,28.0,84,0.00,,,0.01,25.0,meteohub,2013-01-17 17:32:00,
2013-01-17 19:37:00,71.1,66.4,29.86,ESE,114,15.0,31.0,85,0.00,,,0.01,30.0,meteohub,2013-01-17 17:37:00,
2013-01-17 19:42:00,70.9,66.6,29.86,ESE,104,17.0,31.0,86,0.00,,,0.01,25.0,meteohub,2013-01-17 17:42:00,
2013-01-17 19:47:00,70.5,66.4,29.86,East,101,15.0,31.0,87,0.00,,,0.01,19.0,meteohub,2013-01-17 17:47:00,
2013-01-17 19:52:00,70.3,66.2,29.86,SE,131,15.0,30.0,87,0.00,,,0.01,14.0,meteohub,2013-01-17 17:52:00,
2013-01-17 19:57:00,70.2,66.0,29.86,ESE,112,17.0,30.0,87,0.00,,,0.01,9.0,meteohub,2013-01-17 17:57:00,
2013-01-17 20:02:00,70.0,66.0,29.86,East,101,18.0,30.0,87,0.00,,,0.01,0.0,meteohub,2013-01-17 18:02:00,
2013-01-17 20:07:00,69.6,65.7,29.86,ESE,112,13.0,28.0,87,0.00,,,0.01,0.0,meteohub,2013-01-17 18:07:00,
2013-01-17 20:12:00,69.6,65.8,29.86,East,94,19.0,28.0,88,0.00,,,0.01,0.0,meteohub,2013-01-17 18:12:00,
2013-01-17 20:17:00,69.6,65.8,29.86,SE,124,18.0,29.0,88,0.00,,,0.01,0.0,meteohub,2013-01-17 18:17:00,
2013-01-17 20:22:00,69.4,65.7,29.87,ESE,120,25.0,29.0,88,0.00,,,0.01,0.0,meteohub,2013-01-17 18:22:00,
2013-01-17 20:27:00,69.4,66.0,29.87,ESE,103,10.0,28.0,89,0.00,,,0.01,0.0,meteohub,2013-01-17 18:27:00,
2013-01-17 20:32:00,69.3,65.8,29.87,SSE,149,21.0,26.0,89,0.00,,,0.01,0.0,meteohub,2013-01-17 18:32:00,
2013-01-17 20:42:00,69.3,65.8,29.88,East,92,18.0,33.0,89,0.00,,,0.01,0.0,meteohub,2013-01-17 18:42:00,
2013-01-17 20:47:00,69.3,65.8,29.88,ESE,117,22.0,33.0,89,0.00,,,0.01,0.0,meteohub,2013-01-17 18:47:00,
2013-01-17 20:52:00,69.3,65.8,29.87,ESE,122,18.0,27.0,89,0.00,,,0.01,0.0,meteohub,2013-01-17 18:52:00,
2013-01-17 20:57:00,69.1,65.3,29.87,East,101,20.0,27.0,88,0.00,,,0.01,0.0,meteohub,2013-01-17 18:57:00,
2013-01-17 21:02:00,69.3,65.8,29.87,East,87,17.0,28.0,89,0.00,,,0.01,0.0,meteohub,2013-01-17 19:02:00,
2013-01-17 21:07:00,69.3,65.8,29.88,SE,124,12.0,32.0,89,0.00,,,0.01,0.0,meteohub,2013-01-17 19:07:00,
2013-01-17 21:12:00,69.1,65.7,29.87,SE,126,24.0,32.0,89,0.00,,,0.01,0.0,meteohub,2013-01-17 19:12:00,
2013-01-17 21:17:00,69.1,65.7,29.87,SE,142,14.0,32.0,89,0.00,,,0.01,0.0,meteohub,2013-01-17 19:17:00,
2013-01-17 21:22:00,69.1,65.7,29.87,ESE,122,16.0,30.0,89,0.00,,,0.01,0.0,meteohub,2013-01-17 19:22:00,
2013-01-17 21:27:00,69.1,65.7,29.87,ESE,109,11.0,30.0,89,0.00,,,0.01,0.0,meteohub,2013-01-17 19:27:00,
2013-01-17 21:32:00,69.1,65.7,29.87,SE,124,12.0,30.0,89,0.00,,,0.01,0.0,meteohub,2013-01-17 19:32:00,
2013-01-17 21:37:00,69.1,65.7,29.88,East,89,22.0,30.0,89,0.00,,,0.01,0.0,meteohub,2013-01-17 19:37:00,
2013-01-17 21:47:00,69.3,65.8,29.88,SE,128,27.0,31.0,89,0.00,,,0.01,0.0,meteohub,2013-01-17 19:47:00,
2013-01-17 21:52:00,69.3,65.8,29.87,ESE,123,17.0,31.0,89,0.00,,,0.01,0.0,meteohub,2013-01-17 19:52:00,
2013-01-17 21:57:00,69.3,65.8,29.88,SE,128,26.0,32.0,89,0.00,,,0.01,0.0,meteohub,2013-01-17 19:57:00,
2013-01-17 22:02:00,69.3,65.8,29.87,ESE,114,12.0,32.0,89,0.00,,,0.01,0.0,meteohub,2013-01-17 20:02:00,
2013-01-17 22:07:00,69.3,65.8,29.87,East,99,29.0,32.0,89,0.00,,,0.01,0.0,meteohub,2013-01-17 20:07:00,
2013-01-17 22:12:00,69.3,65.8,29.88,ESE,118,23.0,31.0,89,0.00,,,0.01,0.0,meteohub,2013-01-17 20:12:00,
2013-01-17 22:17:00,69.3,65.8,29.88,ESE,119,16.0,31.0,89,0.00,,,0.01,0.0,meteohub,2013-01-17 20:17:00,
2013-01-17 22:22:00,69.1,65.7,29.88,East,95,24.0,31.0,89,0.00,,,0.01,0.0,meteohub,2013-01-17 20:22:00,
2013-01-17 22:27:00,68.9,65.5,29.88,SE,133,20.0,31.0,89,0.00,,,0.01,0.0,meteohub,2013-01-17 20:27:00,
2013-01-17 22:32:00,68.9,65.5,29.88,SE,137,19.0,31.0,89,0.00,,,0.01,0.0,meteohub,2013-01-17 20:32:00,
2013-01-17 22:37:00,68.7,65.3,29.88,ESE,123,19.0,31.0,89,0.00,,,0.01,0.0,meteohub,2013-01-17 20:37:00,
2013-01-17 22:42:00,68.7,64.9,29.88,ESE,118,14.0,30.0,88,0.00,,,0.01,0.0,meteohub,2013-01-17 20:42:00,
2013-01-17 22:47:00,68.7,64.9,29.88,ESE,118,23.0,27.0,88,0.00,,,0.01,0.0,meteohub,2013-01-17 20:47:00,
2013-01-17 22:52:00,68.7,64.9,29.88,ESE,116,19.0,28.0,88,0.00,,,0.01,0.0,meteohub,2013-01-17 20:52:00,
2013-01-17 22:57:00,68.7,64.9,29.88,ESE,113,16.0,28.0,88,0.00,,,0.01,0.0,meteohub,2013-01-17 20:57:00,
2013-01-17 23:02:00,68.7,64.9,29.88,ESE,122,17.0,31.0,88,0.00,,,0.01,0.0,meteohub,2013-01-17 21:02:00,
2013-01-17 23:07:00,68.7,65.3,29.88,SE,129,18.0,31.0,89,0.00,,,0.01,0.0,meteohub,2013-01-17 21:07:00,
2013-01-17 23:12:00,68.7,65.3,29.88,ESE,120,18.0,32.0,89,0.00,,,0.01,0.0,meteohub,2013-01-17 21:12:00,
2013-01-17 23:17:00,68.5,65.1,29.88,ESE,113,16.0,32.0,89,0.00,,,0.01,0.0,meteohub,2013-01-17 21:17:00,
2013-01-17 23:22:00,68.5,65.5,29.88,East,96,19.0,32.0,90,0.00,,,0.01,0.0,meteohub,2013-01-17 21:22:00,
2013-01-17 23:27:00,68.4,65.3,29.88,East,89,10.0,31.0,90,0.00,,,0.01,0.0,meteohub,2013-01-17 21:27:00,
2013-01-17 23:32:00,68.5,65.5,29.89,ESE,120,10.0,31.0,90,0.00,,,0.01,0.0,meteohub,2013-01-17 21:32:00,
2013-01-17 23:42:00,68.4,65.3,29.89,ESE,106,24.0,32.0,90,0.00,,,0.01,0.0,meteohub,2013-01-17 21:42:00,
2013-01-17 23:47:00,68.4,65.3,29.89,ESE,116,16.0,32.0,90,0.00,,,0.01,0.0,meteohub,2013-01-17 21:47:00,
2013-01-17 23:52:00,68.4,65.3,29.89,ESE,122,30.0,32.0,90,0.00,,,0.01,0.0,meteohub,2013-01-17 21:52:00,
2013-01-17 23:57:00,68.4,64.9,29.89,ESE,111,11.0,30.0,89,0.00,,,0.01,0.0,meteohub,2013-01-17 21:57:00,